Time;durP1;ratioP1;P1;durP2;ratioP2;P2;SDS_P1;SDS_P2;PMS_P1;PMS_P2;Temp;Humidity;BMP_temperature;BMP_pressure;BME280_temperature;BME280_humidity;BME280_pressure;Samples;Min_cycle;Max_cycle;Signal;HPM_P1;HPM_P2
2021/03/12 06:10:51;;;;;;;15.30;3.70;;;5.10;99.90;;;-143.32;99.44;53410.50;6199214;23;20797;-92
2021/03/12 06:13:18;;;;;;;17.90;3.80;;;5.10;99.90;;;-143.32;99.25;53430.69;6188572;23;20461;-92
2021/03/12 06:15:47;;;;;;;33.17;3.80;;;5.10;99.90;;;-143.32;99.16;53446.84;6189348;23;20452;-93
2021/03/12 06:18:38;;;;;;;20.33;4.23;;;5.10;99.90;;;-143.32;98.99;53436.75;6187745;23;20757;-93
2021/03/12 06:25:48;;;;;;;16.93;4.00;;;5.20;99.90;;;-143.32;98.71;53426.66;6189702;23;20374;-93
2021/03/12 06:28:21;;;;;;;20.93;4.27;;;5.30;99.90;;;-143.32;98.17;53416.56;6187509;23;20714;-93
2021/03/12 06:30:51;;;;;;;27.83;4.63;;;5.30;99.90;;;-143.32;98.47;53440.78;6188219;23;20982;-93
2021/03/12 06:33:30;;;;;;;20.13;3.90;;;5.30;99.90;;;-143.32;98.48;53426.66;6187767;23;20430;-93
2021/03/12 06:36:00;;;;;;;19.23;4.90;;;5.30;99.90;;;-143.32;97.94;53410.50;6187534;23;20544;-91
2021/03/12 06:42:13;;;;;;;16.80;4.30;;;5.30;99.90;;;-143.32;97.68;53430.69;6194926;23;20424;-92
2021/03/12 06:44:41;;;;;;;22.13;4.07;;;5.40;99.90;;;-143.32;97.38;53428.69;6188032;23;20381;-93
2021/03/12 06:47:11;;;;;;;17.70;4.33;;;5.40;99.90;;;-143.32;97.32;53416.56;6188375;23;20501;-91
2021/03/12 06:49:56;;;;;;;19.87;4.20;;;5.50;99.90;;;-143.32;97.79;53353.94;6188285;23;20535;-93
2021/03/12 06:52:45;;;;;;;21.83;5.23;;;5.60;99.90;;;-143.32;97.46;53398.38;6187761;23;20689;-91
2021/03/12 06:55:12;;;;;;;13.90;3.80;;;5.60;99.90;;;-143.32;96.64;53380.19;6188597;23;20375;-92
2021/03/12 06:57:39;;;;;;;15.37;3.83;;;5.70;99.90;;;-143.32;96.38;53410.50;6188620;23;20413;-92
2021/03/12 07:04:09;;;;;;;16.93;4.07;;;6.00;99.90;;;-143.32;95.37;53382.22;6189443;23;20937;-93
2021/03/12 07:06:48;;;;;;;16.17;4.37;;;5.90;99.90;;;-143.32;95.20;53400.41;6188877;23;20413;-93
2021/03/12 07:09:18;;;;;;;26.40;3.80;;;6.00;99.90;;;-143.32;95.36;53376.16;6188397;23;20490;-91
2021/03/12 07:11:52;;;;;;;11.00;3.63;;;6.00;99.90;;;-143.32;95.41;53380.19;6188802;23;20765;-91
2021/03/12 07:14:21;;;;;;;19.73;3.87;;;6.00;99.90;;;-143.32;95.51;53368.09;6190413;23;20418;-91
2021/03/12 07:16:50;;;;;;;18.10;4.50;;;6.00;99.90;;;-143.32;95.66;53341.81;6188129;23;20460;-92
2021/03/12 07:19:19;;;;;;;18.30;3.70;;;6.00;99.90;;;-143.32;95.29;53366.06;6191607;23;20391;-90
2021/03/12 07:21:53;;;;;;;21.83;4.30;;;6.00;99.90;;;-143.32;95.43;53343.84;6188084;23;20966;-91
2021/03/12 07:24:23;;;;;;;21.50;3.90;;;6.00;99.90;;;-143.32;95.63;53404.44;6188643;23;20413;-89
2021/03/12 07:26:55;;;;;;;20.83;4.37;;;6.10;99.90;;;-143.32;95.72;53366.06;6189658;23;20718;-89
2021/03/12 07:29:28;;;;;;;21.40;4.07;;;6.10;99.90;;;-143.32;96.12;53366.06;6189628;23;20402;-90
2021/03/12 07:31:59;;;;;;;36.37;4.47;;;6.10;99.90;;;-143.32;95.87;53368.09;6190837;23;20833;-92
2021/03/12 07:34:31;;;;;;;14.30;3.73;;;6.10;99.90;;;-143.32;95.80;53319.59;6190619;23;20432;-92
2021/03/12 07:37:05;;;;;;;21.87;4.10;;;6.20;99.90;;;-143.32;95.54;53307.50;6188437;23;20501;-94
2021/03/12 07:39:50;;;;;;;25.83;4.93;;;6.20;99.90;;;-143.32;95.65;53321.63;6188116;23;20409;-90
2021/03/12 07:43:03;;;;;;;29.17;5.47;;;6.30;99.90;;;-143.32;95.52;53351.94;6190708;23;20971;-92
2021/03/12 07:45:42;;;;;;;23.07;4.70;;;6.40;99.90;;;-143.32;95.72;53305.47;6158367;23;20873;-94
2021/03/12 07:48:29;;;;;;;17.73;5.43;;;6.40;99.90;;;-143.32;96.00;53335.78;6193196;23;20845;-93
2021/03/12 07:54:57;;;;;;;25.50;4.50;;;6.60;99.90;;;-143.32;95.67;53295.38;6193022;23;20361;-92
2021/03/12 07:58:26;;;;;;;22.90;4.40;;;6.60;99.90;;;-143.32;95.58;53305.47;6191840;23;20406;-94
2021/03/12 08:01:06;;;;;;;22.83;4.50;;;6.50;99.90;;;-143.32;95.98;53267.09;6171131;23;20441;-92
2021/03/12 08:03:38;;;;;;;26.17;5.80;;;6.70;99.90;;;-143.32;95.32;53277.19;6186834;23;20377;-90
2021/03/12 08:06:34;;;;;;;36.20;5.10;;;6.70;99.90;;;-143.32;95.44;53275.19;6187262;23;20410;-89
2021/03/12 08:09:22;;;;;;;20.50;5.07;;;6.70;99.90;;;-143.32;95.67;53281.25;6186554;23;20912;-89
2021/03/12 08:11:58;;;;;;;24.33;5.17;;;6.60;99.90;;;-143.32;95.39;53279.22;6191496;23;20435;-93
2021/03/12 08:14:27;;;;;;;33.67;5.30;;;6.70;99.90;;;-143.32;95.34;53244.88;6192610;23;20394;-90
2021/03/12 08:20:41;;;;;;;22.87;5.90;;;6.90;99.90;;;-143.32;95.03;53246.91;6196121;23;20373;-94
2021/03/12 08:23:14;;;;;;;19.30;4.80;;;6.80;99.90;;;-143.32;94.48;53269.13;6196191;23;20390;-94
2021/03/12 08:25:47;;;;;;;16.13;4.27;;;6.90;99.90;;;-143.32;94.60;53283.25;6196230;23;20429;-92
2021/03/12 08:28:31;;;;;;;25.80;5.30;;;6.80;99.90;;;-143.32;94.38;53269.13;6195235;23;20864;-92
2021/03/12 08:31:04;;;;;;;17.60;4.33;;;6.90;99.90;;;-143.32;94.43;53271.13;6195740;23;20453;-91
2021/03/12 08:33:39;;;;;;;21.77;4.40;;;7.10;99.90;;;-143.32;93.90;53271.13;6193321;23;20819;-91
2021/03/12 08:36:32;;;;;;;16.90;4.43;;;7.00;99.90;;;-143.32;93.87;53297.41;6192843;23;20492;-92
2021/03/12 08:39:26;;;;;;;20.90;4.90;;;7.00;99.90;;;-143.32;94.06;53259.03;6195181;23;20387;-92
2021/03/12 08:41:55;;;;;;;22.20;4.80;;;7.00;99.90;;;-143.32;93.94;53261.03;6195138;23;20446;-90
2021/03/12 08:44:23;;;;;;;27.73;5.97;;;7.00;99.90;;;-143.32;93.83;53261.03;6196992;23;20397;-90
2021/03/12 09:01:58;;;;;;;24.23;5.00;;;7.50;99.90;;;-143.32;92.56;53250.94;6177972;23;20544;-90
2021/03/12 09:04:30;;;;;;;20.40;4.60;;;7.50;99.90;;;-143.32;92.34;53242.88;6186323;23;20889;-90
2021/03/12 09:07:01;;;;;;;28.50;5.20;;;7.50;99.90;;;-143.32;92.80;53257.00;6186041;23;20429;-89
2021/03/12 09:09:28;;;;;;;20.07;5.00;;;7.40;99.90;;;-143.32;92.62;53236.81;6186450;23;20382;-92
2021/03/12 09:11:56;;;;;;;26.60;5.77;;;7.40;99.90;;;-143.32;93.04;53230.75;6186392;23;20445;-90
2021/03/12 09:14:26;;;;;;;31.63;6.40;;;7.40;99.90;;;-143.32;92.71;53158.03;6185663;23;20406;-88
2021/03/12 09:17:00;;;;;;;28.67;5.60;;;7.50;99.90;;;-143.32;92.38;53139.88;6185539;23;20422;-91
2021/03/12 09:19:27;;;;;;;26.20;5.57;;;7.70;99.90;;;-143.32;92.33;53200.44;6186611;23;20405;-87
2021/03/12 09:21:56;;;;;;;28.33;5.20;;;7.80;99.90;;;-143.32;91.82;53174.19;6186397;23;20445;-87
2021/03/12 09:24:30;;;;;;;21.53;4.67;;;7.90;99.90;;;-143.32;91.25;53202.47;6186654;23;20426;-88
2021/03/12 09:26:57;;;;;;;33.87;5.50;;;7.80;99.90;;;-143.32;90.61;53184.28;6187401;23;20390;-91
2021/03/12 09:29:24;;;;;;;19.77;4.13;;;7.80;99.90;;;-143.32;90.16;53186.31;6186607;23;20414;-91
2021/03/12 09:31:51;;;;;;;28.17;4.40;;;8.00;99.90;;;-143.32;90.10;53176.22;6186715;23;20924;-94
2021/03/12 09:34:19;;;;;;;17.63;4.20;;;8.00;99.90;;;-143.32;89.11;53164.09;6187307;23;20366;-93
2021/03/12 09:36:50;;;;;;;52.17;6.57;;;8.10;99.90;;;-143.32;89.25;53137.84;6190069;23;20747;-94
2021/03/12 09:39:20;;;;;;;22.30;4.97;;;8.30;99.90;;;-143.32;89.10;53180.25;6190310;23;20405;-92
2021/03/12 09:41:54;;;;;;;23.50;4.73;;;8.30;99.90;;;-143.32;89.07;53168.13;6188787;23;20433;-92
2021/03/12 09:48:01;;;;;;;26.73;5.00;;;8.40;99.90;;;-143.32;89.61;53091.41;6185955;23;20417;-91
2021/03/12 09:50:30;;;;;;;21.23;4.97;;;8.40;99.90;;;-143.32;88.74;53125.72;6186665;23;20390;-90
2021/03/12 09:52:58;;;;;;;22.03;4.53;;;8.40;99.90;;;-143.32;88.35;53154.00;6186813;23;20441;-93
2021/03/12 09:55:25;;;;;;;22.33;4.47;;;8.50;99.90;;;-143.32;87.55;53158.03;6186688;23;20456;-91
2021/03/12 09:57:52;;;;;;;18.90;4.30;;;8.50;99.90;;;-143.32;86.79;53117.66;6186677;23;20410;-92
2021/03/12 10:00:25;;;;;;;26.93;5.10;;;8.70;99.90;;;-143.32;86.52;53127.75;6185983;23;20417;-90
2021/03/12 10:02:57;;;;;;;33.73;5.93;;;8.80;99.90;;;-143.32;86.66;53149.97;6186505;23;20390;-91
2021/03/12 10:05:25;;;;;;;28.03;5.83;;;8.60;99.90;;;-143.32;87.04;53151.97;6185883;23;20472;-92
2021/03/12 10:11:50;;;;;;;22.43;4.90;;;8.60;99.90;;;-143.32;85.93;53133.81;6187755;23;20373;-94
2021/03/12 10:14:36;;;;;;;27.47;4.27;;;8.70;99.90;;;-143.32;84.65;53147.94;6188617;23;20402;-90
2021/03/12 10:17:16;;;;;;;19.00;5.00;;;8.70;99.90;;;-143.32;84.53;53115.63;6188703;23;20877;-90
2021/03/12 10:19:51;;;;;;;31.43;5.60;;;8.90;99.90;;;-143.32;84.01;53105.53;6188593;23;20390;-90
2021/03/12 10:22:25;;;;;;;16.07;4.43;;;9.10;99.90;;;-143.32;83.03;53123.72;6187380;23;20935;-92
2021/03/12 10:28:34;;;;;;;23.80;4.83;;;8.90;99.90;;;-143.32;84.87;53156.03;6187502;23;20864;-90
2021/03/12 10:31:05;;;;;;;17.80;3.80;;;8.80;99.90;;;-143.32;84.18;53149.97;6187822;23;20405;-89
2021/03/12 10:33:32;;;;;;;23.10;4.60;;;8.70;99.90;;;-143.32;83.48;53156.03;6188476;23;20513;-89
2021/03/12 10:36:04;;;;;;;32.27;4.97;;;8.80;99.90;;;-143.32;84.07;53194.41;6187172;23;20943;-91
2021/03/12 10:38:35;;;;;;;18.07;3.90;;;8.70;99.90;;;-143.32;84.18;53172.19;6187388;23;20433;-92
2021/03/12 10:48:30;;;;;;;17.00;3.60;;;9.00;99.90;;;-143.32;81.93;53170.16;6186927;23;20413;-90
2021/03/12 10:51:00;;;;;;;18.90;4.30;;;9.20;99.90;;;-143.32;82.16;53137.84;6187137;23;20386;-91
2021/03/12 10:53:43;;;;;;;24.23;4.00;;;9.30;99.90;;;-143.32;83.06;53176.22;6189321;23;20766;-90
2021/03/12 10:56:09;;;;;;;22.00;3.77;;;9.00;99.90;;;-143.32;84.19;53166.13;6190615;23;20405;-92
2021/03/12 11:02:19;;;;;;;31.03;5.40;;;9.00;99.90;;;-143.32;84.01;53083.31;6187581;23;20449;-92
2021/03/12 11:04:50;;;;;;;26.70;5.10;;;9.20;99.90;;;-143.32;83.29;53099.47;6186996;23;20932;-90
2021/03/12 11:07:18;;;;;;;28.77;4.23;;;9.40;99.90;;;-143.32;83.74;53048.97;6188373;23;20903;-91
2021/03/12 11:09:47;;;;;;;23.17;3.67;;;9.40;99.90;;;-143.32;83.86;53137.84;6187767;23;20413;-92
2021/03/12 11:12:15;;;;;;;21.93;4.07;;;9.30;99.90;;;-143.32;85.07;53127.75;6187671;23;20394;-90
2021/03/12 11:14:43;;;;;;;14.90;3.63;;;9.00;99.90;;;-143.32;86.92;53188.34;6186959;23;20478;-93
2021/03/12 11:17:09;;;;;;;14.17;3.53;;;8.70;99.90;;;-143.32;87.00;53196.41;6187312;23;20414;-91
2021/03/12 11:19:39;;;;;;;20.13;4.90;;;8.50;99.90;;;-143.32;88.69;53202.47;6188498;23;20422;-88
2021/03/12 11:22:10;;;;;;;20.00;4.27;;;8.30;99.90;;;-143.32;89.50;53222.66;6187414;23;20442;-89
2021/03/12 11:24:39;;;;;;;17.57;3.60;;;8.10;99.90;;;-143.32;90.11;53200.44;6187261;23;20397;-89
2021/03/12 11:31:13;;;;;;;19.83;5.07;;;8.20;99.90;;;-143.32;89.44;53154.00;6193722;23;20434;-92
2021/03/12 11:39:16;;;;;;;20.77;5.10;;;8.30;99.90;;;-143.32;86.34;53236.81;6098276;23;20456;-91
2021/03/12 11:41:43;;;;;;;18.47;3.67;;;8.30;99.90;;;-143.32;86.13;53212.56;6188918;23;20536;-90
2021/03/12 11:44:13;;;;;;;17.50;4.30;;;8.40;99.90;;;-143.32;86.30;53198.44;6187977;23;20410;-90
2021/03/12 11:46:51;;;;;;;13.33;3.40;;;8.50;99.90;;;-143.32;86.08;53182.28;6188699;23;20398;-92
2021/03/12 11:49:20;;;;;;;13.97;3.97;;;8.50;99.90;;;-143.32;85.39;53198.44;6189343;23;20817;-89
2021/03/12 11:52:06;;;;;;;18.00;3.93;;;8.50;99.90;;;-143.32;87.08;53190.34;6196014;23;20402;-90
2021/03/12 11:54:53;;;;;;;;;;;;;;;;;;;;;
2021/03/12 12:02:04;;;;;;;30.37;4.10;;;8.50;99.90;;;-143.32;86.57;53156.03;6104044;23;20490;-93
2021/03/12 12:18:28;;;;;;;16.37;3.83;;;8.70;99.90;;;-143.32;83.57;53180.25;6138140;23;20455;-89
2021/03/12 12:24:40;;;;;;;13.80;3.00;;;9.00;99.90;;;-143.32;82.18;53196.41;6205289;23;20478;-92
2021/03/12 12:27:09;;;;;;;17.60;4.77;;;8.90;99.90;;;-143.32;82.51;53212.56;6193568;23;20485;-93
2021/03/12 12:32:49;;;;;;;12.43;3.00;;;8.90;99.90;;;-143.32;81.74;53210.56;6182197;23;20429;-93
2021/03/12 12:40:01;;;;;;;15.80;3.63;;;8.90;99.90;;;-143.32;81.52;53194.41;6193786;23;20382;-92
2021/03/12 12:43:03;;;;;;;10.03;3.30;;;8.90;99.90;;;-143.32;81.03;53230.75;6194993;23;20449;-94
2021/03/12 13:36:08;;;;;;;15.47;3.87;;;7.90;99.90;;;-143.32;97.25;53087.34;6184134;23;20445;-93
2021/03/12 13:38:37;;;;;;;20.43;5.20;;;8.10;99.90;;;-143.32;97.19;53105.53;6186149;23;20524;-90
2021/03/12 13:41:04;;;;;;;26.90;3.70;;;8.20;99.90;;;-143.32;96.14;53057.06;6185989;23;20515;-90
2021/03/12 13:47:11;;;;;;;12.40;3.50;;;8.60;99.90;;;-143.32;94.75;53016.69;6185803;23;20428;-90
2021/03/12 13:49:46;;;;;;;15.07;4.17;;;8.80;99.90;;;-143.32;95.29;53028.78;6186903;23;20465;-92
2021/03/12 13:52:14;;;;;;;17.50;4.00;;;8.80;99.90;;;-143.32;92.26;53067.16;6191667;23;20401;-93
2021/03/12 14:02:09;;;;;;;16.40;3.17;;;9.00;99.90;;;-143.32;88.19;53093.41;5994117;24;20439;-93
2021/03/12 14:04:37;;;;;;;15.57;2.97;;;9.10;99.90;;;-143.32;87.86;53085.34;5990698;23;20464;-93
2021/03/12 14:07:17;;;;;;;19.97;3.60;;;9.10;99.90;;;-143.32;88.31;53089.38;5996537;23;20766;-94
2021/03/12 14:09:48;;;;;;;21.07;4.40;;;9.10;99.90;;;-143.32;87.03;53113.63;6177988;23;20827;-94
2021/03/12 14:16:41;;;;;;;18.90;3.60;;;9.00;99.90;;;-143.32;89.62;53063.13;6190994;23;20401;-91
2021/03/12 14:19:08;;;;;;;18.43;3.37;;;8.90;99.90;;;-143.32;89.85;53101.50;6168509;23;20441;-92
2021/03/12 14:21:42;;;;;;;16.97;3.30;;;8.80;99.90;;;-143.32;92.66;53083.31;6196380;23;20791;-93
2021/03/12 14:24:15;;;;;;;23.40;3.73;;;8.60;99.90;;;-143.32;94.90;53075.25;6190113;23;20414;-94
2021/03/12 14:27:20;;;;;;;22.40;3.60;;;8.50;99.90;;;-143.32;95.53;53083.31;6192276;23;20475;-93
2021/03/12 14:30:10;;;;;;;17.17;3.27;;;8.40;99.90;;;-143.32;95.00;53115.63;6162532;23;20753;-94
2021/03/12 14:32:39;;;;;;;18.10;3.00;;;8.30;99.90;;;-143.32;94.17;53125.72;6197096;23;20430;-93
2021/03/12 14:38:33;;;;;;;24.60;3.90;;;8.30;99.90;;;-143.32;94.95;53111.59;6142183;23;20376;-92
2021/03/12 14:49:52;;;;;;;21.27;4.70;;;8.10;99.90;;;-143.32;97.58;53117.66;6087760;23;20377;-93
2021/03/12 14:52:25;;;;;;;17.13;3.80;;;7.90;99.90;;;-143.32;99.33;53125.72;6084353;23;20440;-93
2021/03/12 15:10:18;;;;;;;11.13;3.83;;;7.80;99.90;;;-143.32;99.19;53109.56;6028124;23;20429;-92
2021/03/12 15:21:22;;;;;;;8.80;4.07;;;7.60;99.90;;;-143.32;99.82;53119.66;5840229;24;21032;-94
2021/03/12 15:27:08;;;;;;;12.90;3.53;;;7.50;99.90;;;-143.32;99.75;53137.84;6199128;23;20516;-91
2021/03/12 15:51:49;;;;;;;13.63;3.27;;;7.50;99.90;;;-143.32;98.87;53216.59;6193599;23;20461;-91
2021/03/12 17:06:20;;;;;;;2.87;2.50;;;5.00;99.90;;;-143.32;100.00;53277.19;6192666;23;20454;-89
2021/03/12 17:09:33;;;;;;;2.60;2.00;;;5.10;99.90;;;-143.32;100.00;53265.09;6021473;23;20454;-94
2021/03/12 17:30:50;;;;;;;15.53;6.20;;;5.60;99.90;;;-143.32;100.00;53190.34;5919464;23;20445;-91
2021/03/12 17:33:22;;;;;;;8.50;4.93;;;5.60;99.90;;;-143.32;100.00;53190.34;6073566;23;20414;-91
2021/03/12 17:36:10;;;;;;;8.40;4.37;;;5.70;99.90;;;-143.32;100.00;53200.44;6074444;23;20390;-92
2021/03/12 17:38:44;;;;;;;10.93;4.63;;;5.70;99.90;;;-143.32;100.00;53184.28;6193395;23;20951;-91
2021/03/12 17:41:21;;;;;;;7.03;3.90;;;5.60;99.90;;;-143.32;100.00;53192.38;6190930;23;20401;-92
2021/03/12 17:44:09;;;;;;;9.67;3.97;;;5.80;99.90;;;-143.32;100.00;53220.66;6193375;23;20405;-93
2021/03/12 17:47:55;;;;;;;;;;;;;;;;;;;;;
2021/03/12 17:58:20;;;;;;;5.83;3.27;;;5.90;99.90;;;-143.32;100.00;53180.25;5978311;23;20471;-92
2021/03/12 18:01:19;;;;;;;8.57;3.70;;;6.00;99.90;;;-143.32;100.00;53188.34;6047156;23;20466;-91
2021/03/12 18:07:56;;;;;;;12.33;4.30;;;6.10;99.90;;;-143.32;100.00;53176.22;6097774;23;20389;-92
2021/03/12 18:10:38;;;;;;;13.33;4.80;;;6.10;99.90;;;-143.32;100.00;53160.06;6097911;23;20488;-93
2021/03/12 18:13:09;;;;;;;14.43;4.63;;;6.20;99.90;;;-143.32;100.00;53208.53;6098832;23;20415;-92
2021/03/12 18:15:44;;;;;;;14.23;5.57;;;6.20;99.90;;;-143.32;100.00;53234.78;6107870;23;20401;-95
2021/03/12 18:18:19;;;;;;;13.80;4.80;;;6.20;99.90;;;-143.32;100.00;53208.53;6134929;23;20469;-93
2021/03/12 18:21:15;;;;;;;10.77;4.40;;;6.30;99.90;;;-143.32;100.00;53190.34;6193444;23;20464;-91
2021/03/12 18:23:42;;;;;;;11.50;4.70;;;6.40;99.90;;;-143.32;100.00;53188.34;6193193;23;20391;-94
2021/03/12 18:26:44;;;;;;;17.73;4.40;;;6.40;99.90;;;-143.32;100.00;53190.34;6190642;23;20489;-94
2021/03/12 18:29:40;;;;;;;7.47;3.50;;;6.40;99.90;;;-143.32;100.00;53210.56;6193805;23;20417;-92
2021/03/12 18:32:14;;;;;;;12.20;4.10;;;6.40;99.90;;;-143.32;100.00;53204.50;6190416;23;20893;-94
2021/03/12 18:34:55;;;;;;;7.93;3.87;;;6.40;99.90;;;-143.32;100.00;53232.75;6191430;23;20410;-91
2021/03/12 18:37:25;;;;;;;10.17;3.87;;;6.40;99.90;;;-143.32;100.00;53230.75;6187345;23;20436;-92
2021/03/12 18:39:51;;;;;;;7.23;3.20;;;6.50;99.90;;;-143.32;100.00;53198.44;6187940;23;20390;-89
2021/03/12 18:46:27;;;;;;;10.70;4.23;;;6.40;99.90;;;-143.32;100.00;53244.88;6188271;23;20369;-90
2021/03/12 18:49:11;;;;;;;6.73;3.70;;;6.40;99.90;;;-143.32;100.00;53224.69;6187305;23;20386;-91
2021/03/12 18:52:01;;;;;;;6.20;3.27;;;6.40;99.90;;;-143.32;100.00;53206.50;6187450;23;20423;-91
2021/03/12 18:54:32;;;;;;;10.03;3.70;;;6.40;99.90;;;-143.32;100.00;53242.88;6183074;23;20457;-86
2021/03/12 18:57:05;;;;;;;5.27;3.03;;;6.40;99.90;;;-143.32;100.00;53252.97;6187154;23;20876;-89
2021/03/12 19:02:38;;;;;;;8.50;3.10;;;6.40;99.90;;;-143.32;100.00;53242.88;6186834;23;20936;-87
2021/03/12 19:05:08;;;;;;;8.10;3.90;;;6.40;99.90;;;-143.32;100.00;53252.97;6187367;23;20412;-89
2021/03/12 19:07:40;;;;;;;12.53;6.87;;;6.40;99.90;;;-143.32;100.00;53226.72;6186973;23;20418;-88
2021/03/12 19:10:11;;;;;;;14.20;7.03;;;6.40;99.90;;;-143.32;100.00;53267.09;6186949;23;20383;-89
2021/03/12 19:12:40;;;;;;;12.10;5.37;;;6.30;99.90;;;-143.32;100.00;53220.66;6186738;23;20652;-87
2021/03/12 19:15:15;;;;;;;9.83;4.57;;;6.30;99.90;;;-143.32;100.00;53214.59;6187645;23;20395;-90
2021/03/12 19:17:53;;;;;;;7.63;3.93;;;6.30;99.90;;;-143.32;100.00;53252.97;6187308;23;20409;-89
2021/03/12 19:20:33;;;;;;;12.80;4.00;;;6.20;99.90;;;-143.32;100.00;53184.28;6187074;23;20413;-89
2021/03/12 19:23:03;;;;;;;4.50;2.80;;;6.20;99.90;;;-143.32;100.00;53248.94;6187050;23;20430;-90
2021/03/12 19:25:35;;;;;;;5.53;3.23;;;6.20;99.90;;;-143.32;100.00;53254.97;6187165;23;20433;-89
2021/03/12 19:28:01;;;;;;;6.47;4.00;;;6.20;99.90;;;-143.32;100.00;53242.88;6187456;23;20374;-89
2021/03/12 19:30:31;;;;;;;5.80;3.00;;;6.20;99.90;;;-143.32;100.00;53259.03;6187201;23;20414;-89
2021/03/12 19:33:05;;;;;;;6.47;3.40;;;6.20;99.90;;;-143.32;100.00;53271.13;6186785;23;20425;-89
2021/03/12 19:39:34;;;;;;;12.10;4.37;;;6.20;99.90;;;-143.32;100.00;53257.00;6188179;23;20382;-92
2021/03/12 19:42:22;;;;;;;18.67;6.13;;;6.20;99.90;;;-143.32;100.00;53269.13;6188651;23;20952;-91
2021/03/12 19:45:17;;;;;;;;;;;;;;;;;;;;;
2021/03/12 19:47:45;;;;;;;7.13;3.60;;;6.20;99.90;;;-143.32;100.00;53293.34;6167880;23;20441;-91
2021/03/12 19:50:37;;;;;;;12.93;4.40;;;6.20;99.90;;;-143.32;100.00;53295.38;6196121;23;20426;-90
2021/03/12 19:53:25;;;;;;;;;;;;;;;;;;;;;
2021/03/12 19:56:07;;;;;;;15.57;5.17;;;6.20;99.90;;;-143.32;100.00;53242.88;6197881;23;20437;-90
2021/03/12 19:59:02;;;;;;;9.47;4.30;;;6.10;99.90;;;-143.32;100.00;53246.91;6192341;23;20398;-92
2021/03/12 20:01:42;;;;;;;18.60;4.90;;;6.10;99.90;;;-143.32;100.00;53293.34;6190241;23;20374;-89
2021/03/12 20:04:21;;;;;;;11.27;6.27;;;6.10;99.90;;;-143.32;100.00;53287.28;6191607;23;20738;-90
2021/03/12 20:06:54;;;;;;;15.33;5.00;;;6.10;99.90;;;-143.32;100.00;53307.50;6187122;23;20386;-91
2021/03/12 20:09:26;;;;;;;11.20;4.77;;;6.10;99.90;;;-143.32;100.00;53287.28;6187325;23;20394;-91
2021/03/12 20:12:19;;;;;;;10.93;4.73;;;6.10;99.90;;;-143.32;100.00;53297.41;6187601;23;20393;-90
2021/03/12 20:14:55;;;;;;;12.37;4.90;;;6.20;99.90;;;-143.32;100.00;53265.09;6188517;23;20401;-91
2021/03/12 20:17:22;;;;;;;22.40;5.90;;;6.20;99.90;;;-143.32;100.00;53281.25;6187383;23;20465;-91
2021/03/12 20:20:09;;;;;;;10.80;6.23;;;6.20;99.90;;;-143.32;100.00;53236.81;6187827;23;20771;-89
2021/03/12 20:22:53;;;;;;;;;;;;;;;;;;;;;
2021/03/12 20:25:26;;;;;;;16.70;7.50;;;6.30;99.90;;;-143.32;100.00;53244.88;6186685;23;20489;-88
2021/03/12 20:28:16;;;;;;;18.20;5.97;;;6.30;99.90;;;-143.32;100.00;53289.31;6186636;23;20383;-88
2021/03/12 20:30:46;;;;;;;15.43;7.20;;;6.40;99.90;;;-143.32;100.00;53218.63;6187138;23;20777;-89
2021/03/12 20:33:17;;;;;;;19.60;8.27;;;6.40;99.90;;;-143.32;100.00;53269.13;6187401;23;20857;-92
2021/03/12 20:35:46;;;;;;;15.40;7.07;;;6.50;99.90;;;-143.32;100.00;53242.88;6186661;23;20402;-89
2021/03/12 20:38:19;;;;;;;12.57;5.87;;;6.50;99.90;;;-143.32;100.00;53244.88;6186856;23;20468;-89
2021/03/12 20:40:55;;;;;;;16.80;5.83;;;6.50;99.90;;;-143.32;100.00;53250.94;6186570;23;20429;-92
2021/03/12 20:43:35;;;;;;;15.20;6.27;;;6.50;99.90;;;-143.32;100.00;53222.66;6188175;23;20430;-91
2021/03/12 20:46:16;;;;;;;10.27;5.60;;;6.50;99.90;;;-143.32;100.00;53269.13;6187136;23;20444;-88
2021/03/12 20:48:46;;;;;;;17.53;6.27;;;6.50;99.90;;;-143.32;100.00;53254.97;6186709;23;20374;-87
2021/03/12 20:51:15;;;;;;;14.40;4.70;;;6.40;99.90;;;-143.32;100.00;53240.84;6186847;23;20402;-88
2021/03/12 20:53:43;;;;;;;15.50;5.77;;;6.40;99.90;;;-143.32;100.00;53283.25;6186866;23;20433;-87
2021/03/12 20:56:25;;;;;;;14.30;4.60;;;6.30;99.90;;;-143.32;100.00;53265.09;6189202;23;20402;-86
2021/03/12 20:58:54;;;;;;;9.40;4.50;;;6.40;99.90;;;-143.32;100.00;53263.06;6186665;23;20390;-89
2021/03/12 21:01:21;;;;;;;11.00;5.93;;;6.30;99.90;;;-143.32;100.00;53248.94;6186494;23;20781;-90
2021/03/12 21:03:48;;;;;;;9.10;3.93;;;6.30;99.90;;;-143.32;100.00;53305.47;6187531;23;20417;-89
2021/03/12 21:06:18;;;;;;;8.30;4.30;;;6.20;99.90;;;-143.32;100.00;53281.25;6186437;23;20411;-90
2021/03/12 21:08:51;;;;;;;11.83;5.23;;;6.20;99.90;;;-143.32;100.00;53281.25;6186651;23;20414;-90
2021/03/12 21:11:18;;;;;;;12.90;5.47;;;6.20;99.90;;;-143.32;100.00;53309.50;6185931;23;20418;-92
2021/03/12 21:13:45;;;;;;;9.33;4.93;;;6.30;99.90;;;-143.32;100.00;53267.09;6185886;23;20453;-91
2021/03/12 21:16:13;;;;;;;9.80;4.87;;;6.30;99.90;;;-143.32;100.00;53319.59;6185926;23;20972;-87
2021/03/12 21:18:42;;;;;;;14.77;5.20;;;6.30;99.90;;;-143.32;100.00;53289.31;6186295;23;20409;-85
2021/03/12 21:21:09;;;;;;;16.43;4.83;;;6.40;99.90;;;-143.32;100.00;53279.22;6185945;23;20472;-87
2021/03/12 21:23:39;;;;;;;15.07;5.27;;;6.40;99.90;;;-143.32;100.00;53254.97;6186231;23;20457;-91
2021/03/12 21:26:06;;;;;;;10.63;4.90;;;6.40;99.90;;;-143.32;100.00;53275.19;6185989;23;20409;-91
2021/03/12 21:28:33;;;;;;;8.77;5.10;;;6.40;99.90;;;-143.32;100.00;53248.94;6185968;23;20414;-91
2021/03/12 21:31:00;;;;;;;13.03;4.60;;;6.50;99.90;;;-143.32;100.00;53283.25;6186869;23;20478;-93
2021/03/12 21:33:28;;;;;;;10.70;4.23;;;6.30;99.90;;;-143.32;100.00;53327.69;6186006;23;20445;-87
2021/03/12 21:36:14;;;;;;;9.33;4.17;;;6.30;99.90;;;-143.32;100.00;53295.38;6186118;23;20466;-86
2021/03/12 21:38:53;;;;;;;9.10;4.27;;;6.30;99.90;;;-143.32;100.00;53331.72;6183751;23;20418;-87
2021/03/12 21:41:22;;;;;;;11.47;4.47;;;6.20;99.90;;;-143.32;100.00;53295.38;6185600;23;20422;-86
2021/03/12 21:43:49;;;;;;;13.97;4.23;;;6.20;99.90;;;-143.32;100.00;53313.56;6185920;23;20456;-92
2021/03/12 21:46:17;;;;;;;11.63;4.37;;;6.20;99.90;;;-143.32;100.00;53279.22;6187306;23;20488;-91
2021/03/12 21:48:51;;;;;;;9.10;4.80;;;6.10;99.90;;;-143.32;100.00;53281.25;6185680;23;20413;-89
2021/03/12 21:51:21;;;;;;;12.00;4.73;;;6.10;99.90;;;-143.32;100.00;53309.50;6185988;23;20428;-90
2021/03/12 21:53:51;;;;;;;12.20;5.00;;;6.20;99.90;;;-143.32;100.00;53297.41;6185930;23;20398;-90
2021/03/12 21:56:21;;;;;;;11.47;4.63;;;6.20;99.90;;;-143.32;100.00;53281.25;6186671;23;20398;-92
2021/03/12 21:58:48;;;;;;;12.27;4.97;;;6.20;99.90;;;-143.32;100.00;53313.56;6187112;23;20413;-91
2021/03/12 22:01:19;;;;;;;17.47;5.67;;;6.20;99.90;;;-143.32;100.00;53307.50;6185803;23;20413;-91
2021/03/12 22:03:50;;;;;;;12.00;4.17;;;6.30;99.90;;;-143.32;100.00;53293.34;6186436;23;20468;-90
2021/03/12 22:06:17;;;;;;;10.73;3.93;;;6.30;99.90;;;-143.32;100.00;53331.72;6186355;23;20371;-91
2021/03/12 22:08:51;;;;;;;12.70;4.50;;;6.20;99.90;;;-143.32;100.00;53327.69;6185902;23;20445;-86
2021/03/12 22:11:18;;;;;;;10.93;4.70;;;6.20;99.90;;;-143.32;100.00;53291.34;6187778;23;20381;-86
2021/03/12 22:13:45;;;;;;;14.93;5.43;;;6.30;99.90;;;-143.32;100.00;53303.44;6187597;23;20889;-87
2021/03/12 22:16:12;;;;;;;12.83;4.50;;;6.30;99.90;;;-143.32;100.00;53283.25;6187688;23;20394;-86
2021/03/12 22:18:40;;;;;;;16.07;5.20;;;6.30;99.90;;;-143.32;100.00;53305.47;6187853;23;20413;-90
2021/03/12 22:21:08;;;;;;;13.77;5.37;;;6.30;99.90;;;-143.32;100.00;53279.22;6187445;23;20401;-92
2021/03/12 22:23:34;;;;;;;11.70;5.33;;;6.40;99.90;;;-143.32;100.00;53301.44;6187540;23;20445;-87
2021/03/12 22:26:02;;;;;;;13.80;5.10;;;6.40;99.90;;;-143.32;100.00;53279.22;6187556;23;20885;-86
2021/03/12 22:28:31;;;;;;;17.90;4.87;;;6.30;99.90;;;-143.32;100.00;53315.56;6187906;23;20398;-86